createdAt,value
2019-03-22T00:01:37.110Z,98.70
2019-03-22T00:04:06.877Z,98.80
2019-03-22T00:06:36.680Z,98.70
2019-03-22T00:09:07.633Z,98.80
2019-03-22T00:11:37.405Z,98.90
2019-03-22T00:14:07.230Z,99.50
2019-03-22T00:16:36.913Z,99.60
2019-03-22T00:19:06.739Z,99.80
2019-03-22T00:21:36.467Z,99.20
2019-03-22T00:24:06.279Z,99.70
2019-03-22T00:26:36.157Z,99.90
2019-03-22T00:29:05.920Z,99.90
2019-03-22T00:31:35.675Z,99.90
2019-03-22T00:34:05.378Z,99.90
2019-03-22T00:36:35.097Z,99.90
2019-03-22T00:39:05.872Z,99.90
2019-03-22T00:41:35.581Z,99.90
2019-03-22T00:44:05.340Z,99.90
2019-03-22T00:46:35.112Z,99.90
2019-03-22T00:49:04.806Z,99.90
2019-03-22T00:51:34.537Z,99.90
2019-03-22T00:54:04.259Z,99.90
2019-03-22T00:56:33.927Z,99.90
2019-03-22T00:59:03.632Z,99.90
2019-03-22T01:01:33.299Z,99.90
2019-03-22T01:04:03.055Z,99.90
2019-03-22T01:06:32.731Z,99.90
2019-03-22T01:09:02.508Z,99.90
2019-03-22T01:11:32.182Z,99.90
2019-03-22T01:14:01.950Z,99.90
2019-03-22T01:16:31.684Z,99.90
2019-03-22T01:19:01.513Z,99.90
2019-03-22T01:21:31.221Z,99.90
2019-03-22T01:24:01.005Z,99.90
2019-03-22T01:26:30.742Z,99.90
2019-03-22T01:29:00.596Z,99.90
2019-03-22T01:31:30.281Z,99.90
2019-03-22T01:34:00.060Z,99.90
2019-03-22T01:36:29.746Z,99.90
2019-03-22T01:38:59.521Z,99.90
2019-03-22T01:41:29.212Z,99.90
2019-03-22T01:43:58.984Z,99.90
2019-03-22T01:46:30.065Z,99.90
2019-03-22T01:48:59.803Z,99.90
2019-03-22T01:51:29.509Z,99.90
2019-03-22T01:53:59.202Z,99.90
2019-03-22T01:56:28.869Z,99.90
2019-03-22T01:58:58.618Z,99.90
2019-03-22T02:01:28.313Z,99.90
2019-03-22T02:03:58.002Z,99.90
2019-03-22T02:06:27.720Z,99.90
2019-03-22T02:08:57.457Z,99.90
2019-03-22T02:11:27.128Z,99.90
2019-03-22T02:13:56.932Z,99.90
2019-03-22T02:16:28.161Z,99.90
2019-03-22T02:18:57.872Z,99.90
2019-03-22T02:21:27.602Z,99.90
2019-03-22T02:23:57.354Z,99.90
2019-03-22T02:26:27.068Z,99.90
2019-03-22T02:28:56.801Z,99.90
2019-03-22T02:31:26.577Z,99.90
2019-03-22T02:33:56.282Z,99.90
2019-03-22T02:36:26.033Z,99.90
2019-03-22T02:38:55.742Z,99.90
2019-03-22T02:41:25.429Z,99.90
2019-03-22T02:43:55.163Z,99.90
2019-03-22T02:46:24.874Z,99.90
2019-03-22T02:48:54.616Z,99.90
2019-03-22T02:51:24.444Z,99.90
2019-03-22T02:53:54.161Z,99.90
2019-03-22T02:56:23.983Z,99.90
2019-03-22T02:58:53.689Z,99.90
2019-03-22T03:01:23.352Z,99.90
2019-03-22T03:03:53.125Z,99.90
2019-03-22T03:06:22.819Z,99.90
2019-03-22T03:08:52.486Z,99.90
2019-03-22T03:11:22.165Z,99.90
2019-03-22T03:13:51.861Z,99.90
2019-03-22T03:16:21.542Z,99.90
2019-03-22T03:18:51.207Z,99.90
2019-03-22T03:21:20.875Z,99.90
2019-03-22T03:23:50.558Z,99.90
2019-03-22T03:26:20.236Z,99.90
2019-03-22T03:28:49.997Z,99.90
2019-03-22T03:31:19.657Z,99.90
2019-03-22T03:33:49.372Z,99.90
2019-03-22T03:36:19.052Z,99.90
2019-03-22T03:38:48.827Z,99.90
2019-03-22T03:41:18.508Z,99.90
2019-03-22T03:43:48.216Z,99.90
2019-03-22T03:46:17.979Z,99.90
2019-03-22T03:48:47.656Z,99.90
2019-03-22T03:51:17.339Z,99.90
2019-03-22T03:53:47.147Z,99.90
2019-03-22T03:56:16.943Z,99.90
2019-03-22T03:58:52.821Z,99.90
2019-03-22T04:01:18.250Z,99.90
2019-03-22T04:03:47.931Z,99.90
2019-03-22T04:06:17.648Z,99.90
2019-03-22T04:08:47.346Z,99.90
2019-03-22T04:11:17.074Z,99.90
2019-03-22T04:13:46.894Z,99.90
2019-03-22T04:16:16.665Z,99.90
2019-03-22T04:18:46.329Z,99.90
2019-03-22T04:21:16.041Z,99.90
2019-03-22T04:23:45.697Z,99.90
2019-03-22T04:26:15.384Z,99.90
2019-03-22T04:28:45.103Z,99.90
2019-03-22T04:31:14.916Z,99.90
2019-03-22T04:33:44.589Z,99.90
2019-03-22T04:36:14.359Z,99.90
2019-03-22T04:38:44.020Z,99.90
2019-03-22T04:41:13.804Z,99.90
2019-03-22T04:43:43.556Z,99.90
2019-03-22T04:46:13.935Z,99.90
2019-03-22T04:48:44.297Z,99.90
2019-03-22T04:51:14.460Z,99.90
2019-03-22T04:53:50.491Z,99.90
2019-03-22T04:56:21.755Z,99.90
2019-03-22T04:58:52.270Z,99.90
2019-03-22T05:01:24.063Z,99.90
2019-03-22T05:03:54.609Z,99.90
2019-03-22T05:06:24.907Z,99.90
2019-03-22T05:08:56.900Z,99.90
2019-03-22T05:11:27.933Z,99.90
2019-03-22T05:14:00.048Z,99.90
2019-03-22T05:16:30.691Z,99.90
2019-03-22T05:19:01.779Z,99.90
2019-03-22T05:21:32.300Z,99.90
2019-03-22T05:24:04.344Z,99.90
2019-03-22T05:26:37.372Z,99.90
2019-03-22T05:29:08.467Z,99.90
2019-03-22T05:32:06.352Z,99.90
2019-03-22T05:34:36.189Z,99.90
2019-03-22T05:37:06.172Z,99.90
2019-03-22T05:39:35.916Z,99.90
2019-03-22T05:42:05.565Z,99.90
2019-03-22T05:44:35.374Z,99.90
2019-03-22T05:47:05.578Z,99.90
2019-03-22T05:49:35.288Z,99.90
2019-03-22T05:52:05.247Z,99.90
2019-03-22T05:54:35.026Z,99.90
2019-03-22T05:57:13.309Z,99.90
2019-03-22T05:59:42.343Z,99.90
2019-03-22T06:02:07.668Z,99.90
2019-03-22T06:04:37.471Z,99.90
2019-03-22T06:07:07.211Z,99.90
2019-03-22T06:09:36.904Z,99.90
2019-03-22T06:12:06.608Z,99.90
2019-03-22T06:14:36.309Z,99.90
2019-03-22T06:17:05.993Z,99.90
2019-03-22T06:19:35.683Z,99.90
2019-03-22T06:22:05.438Z,99.90
2019-03-22T06:24:35.140Z,99.90
2019-03-22T06:27:04.841Z,99.90
2019-03-22T06:29:34.542Z,99.90
2019-03-22T06:32:04.301Z,99.90
2019-03-22T06:34:34.084Z,99.90
2019-03-22T06:37:03.776Z,99.90
2019-03-22T06:39:33.570Z,99.90
2019-03-22T06:42:03.431Z,99.90
2019-03-22T06:44:33.219Z,99.90
2019-03-22T06:47:02.891Z,99.90
2019-03-22T06:49:32.599Z,99.90
2019-03-22T06:52:02.400Z,99.90
2019-03-22T06:54:32.230Z,99.90
2019-03-22T06:57:02.224Z,99.90
2019-03-22T06:59:31.937Z,99.90
2019-03-22T07:02:01.663Z,99.90
2019-03-22T07:04:31.376Z,99.90
2019-03-22T07:07:01.124Z,99.90
2019-03-22T07:09:30.881Z,99.90
2019-03-22T07:12:00.878Z,99.90
2019-03-22T07:14:30.824Z,99.90
2019-03-22T07:17:00.561Z,99.90
2019-03-22T07:19:30.240Z,99.90
2019-03-22T07:22:00.078Z,99.90
2019-03-22T07:24:29.812Z,99.90
2019-03-22T07:26:59.619Z,99.90
2019-03-22T07:29:29.394Z,99.90
2019-03-22T07:31:59.207Z,99.90
2019-03-22T07:34:28.865Z,99.90
2019-03-22T07:36:58.667Z,99.90
2019-03-22T07:39:28.399Z,99.90
2019-03-22T07:41:58.171Z,98.90
2019-03-22T07:44:27.868Z,97.90
2019-03-22T07:46:57.636Z,97.50
2019-03-22T07:49:27.329Z,96.60
2019-03-22T07:51:57.128Z,96.50
2019-03-22T07:54:26.869Z,95.50
2019-03-22T07:56:56.636Z,96.00
2019-03-22T07:59:26.314Z,96.20
2019-03-22T08:01:56.085Z,95.90
2019-03-22T08:04:25.844Z,94.80
2019-03-22T08:06:55.556Z,94.10
2019-03-22T08:09:25.218Z,94.30
2019-03-22T08:11:54.985Z,94.00
2019-03-22T08:14:24.691Z,94.30
2019-03-22T08:16:54.429Z,94.30
2019-03-22T08:19:24.200Z,93.90
2019-03-22T08:21:53.909Z,94.20
2019-03-22T08:24:23.604Z,94.50
2019-03-22T08:26:53.413Z,94.30
2019-03-22T08:29:23.170Z,93.90
2019-03-22T08:31:52.898Z,93.60
2019-03-22T08:34:22.744Z,93.70
2019-03-22T08:36:52.498Z,93.40
2019-03-22T08:39:22.175Z,93.60
2019-03-22T08:41:51.919Z,94.00
2019-03-22T08:44:21.670Z,93.60
2019-03-22T08:46:51.613Z,93.80
2019-03-22T08:49:21.481Z,93.90
2019-03-22T08:51:51.512Z,93.90
2019-03-22T08:54:21.297Z,93.90
2019-03-22T08:56:51.083Z,93.30
2019-03-22T08:59:20.786Z,93.20
2019-03-22T09:01:50.562Z,93.50
2019-03-22T09:04:20.268Z,92.90
2019-03-22T09:06:50.143Z,93.20
2019-03-22T09:09:19.959Z,93.80
2019-03-22T09:11:49.677Z,92.00
2019-03-22T09:14:19.384Z,92.10
2019-03-22T09:16:49.174Z,92.50
2019-03-22T09:19:18.826Z,92.30
2019-03-22T09:21:48.623Z,92.40
2019-03-22T09:24:19.113Z,91.40
2019-03-22T09:26:48.961Z,90.80
2019-03-22T09:29:18.776Z,91.20
2019-03-22T09:31:48.636Z,90.20
2019-03-22T09:34:18.321Z,90.80
2019-03-22T09:36:48.021Z,90.50
2019-03-22T09:39:17.768Z,90.30
2019-03-22T09:41:47.513Z,90.30
2019-03-22T09:44:17.250Z,91.30
2019-03-22T09:46:47.184Z,90.20
2019-03-22T09:49:17.098Z,90.50
2019-03-22T09:51:46.972Z,90.00
2019-03-22T09:54:16.732Z,87.70
2019-03-22T09:56:47.584Z,87.20
2019-03-22T09:59:17.511Z,88.20
2019-03-22T10:01:47.406Z,85.60
2019-03-22T10:04:17.158Z,86.00
2019-03-22T10:06:46.904Z,86.00
2019-03-22T10:09:16.763Z,85.10
2019-03-22T10:11:46.607Z,84.80
2019-03-22T10:14:16.429Z,83.50
2019-03-22T10:16:47.651Z,84.60
2019-03-22T10:19:17.863Z,85.10
2019-03-22T10:21:47.558Z,84.80
2019-03-22T10:24:17.295Z,85.80
2019-03-22T10:26:47.018Z,83.30
2019-03-22T10:29:16.718Z,82.00
2019-03-22T10:31:46.605Z,85.30
2019-03-22T10:34:16.493Z,86.80
2019-03-22T10:36:46.284Z,82.70
2019-03-22T10:39:15.972Z,82.00
2019-03-22T10:41:45.764Z,84.80
2019-03-22T10:44:15.603Z,84.50
2019-03-22T10:46:45.432Z,85.20
2019-03-22T10:49:15.319Z,83.30
2019-03-22T10:51:56.044Z,82.90
2019-03-22T10:54:16.468Z,81.90
2019-03-22T10:56:46.227Z,81.60
2019-03-22T10:59:15.943Z,81.30
2019-03-22T11:01:52.376Z,82.70
2019-03-22T11:04:17.227Z,80.90
2019-03-22T11:06:46.898Z,81.70
2019-03-22T11:09:16.641Z,78.10
2019-03-22T11:11:46.383Z,81.20
2019-03-22T11:14:16.177Z,78.10
2019-03-22T11:16:47.007Z,77.70
2019-03-22T11:19:16.729Z,76.20
2019-03-22T11:21:46.502Z,77.40
2019-03-22T11:24:16.185Z,78.70
2019-03-22T11:26:45.902Z,78.00
2019-03-22T11:29:15.706Z,79.70
2019-03-22T11:31:45.484Z,76.10
2019-03-22T11:34:15.275Z,76.90
2019-03-22T11:36:45.044Z,76.10
2019-03-22T11:39:15.732Z,77.60
2019-03-22T11:41:45.924Z,76.20
2019-03-22T11:44:15.635Z,77.70
2019-03-22T11:46:45.320Z,76.80
2019-03-22T11:49:15.090Z,74.20
2019-03-22T11:51:44.960Z,73.50
2019-03-22T11:54:14.748Z,76.20
2019-03-22T11:56:44.449Z,75.50
2019-03-22T11:59:14.155Z,74.80
2019-03-22T12:02:02.671Z,72.30
2019-03-22T12:04:32.457Z,73.60
2019-03-22T12:07:02.265Z,72.30
2019-03-22T12:09:31.945Z,70.60
2019-03-22T12:12:01.730Z,71.60
2019-03-22T12:14:31.575Z,67.90
2019-03-22T12:17:01.280Z,70.80
2019-03-22T12:19:31.039Z,71.30
2019-03-22T12:22:00.848Z,65.60
2019-03-22T12:24:30.584Z,73.90
2019-03-22T12:27:00.362Z,70.30
2019-03-22T12:29:30.120Z,68.50
2019-03-22T12:31:59.846Z,69.00
2019-03-22T12:34:29.524Z,68.70
2019-03-22T12:36:59.296Z,69.10
2019-03-22T12:39:28.988Z,65.90
2019-03-22T12:41:58.706Z,64.80
2019-03-22T12:44:28.456Z,65.50
2019-03-22T12:46:58.280Z,64.60
2019-03-22T12:49:28.028Z,66.20
2019-03-22T12:51:57.726Z,65.00
2019-03-22T12:54:27.391Z,57.90
2019-03-22T12:56:58.204Z,56.50
2019-03-22T12:59:27.996Z,59.00
2019-03-22T13:01:57.761Z,67.00
2019-03-22T13:04:27.552Z,66.60
2019-03-22T13:06:57.243Z,65.20
2019-03-22T13:09:26.957Z,62.40
2019-03-22T13:11:56.657Z,61.10
2019-03-22T13:14:26.447Z,60.70
2019-03-22T13:16:56.215Z,64.10
2019-03-22T13:19:26.003Z,60.70
2019-03-22T13:21:55.713Z,62.60
2019-03-22T13:24:25.496Z,62.50
2019-03-22T13:26:55.266Z,62.20
2019-03-22T13:29:25.068Z,60.00
2019-03-22T13:31:54.860Z,57.80
2019-03-22T13:34:24.691Z,50.50
2019-03-22T13:36:54.403Z,49.20
2019-03-22T13:39:24.138Z,51.10
2019-03-22T13:41:53.900Z,52.50
2019-03-22T13:44:23.612Z,51.50
2019-03-22T13:46:53.333Z,51.60
2019-03-22T13:49:23.088Z,53.20
2019-03-22T13:51:52.849Z,50.00
2019-03-22T13:54:22.636Z,49.60
2019-03-22T13:56:52.412Z,51.40
2019-03-22T13:59:22.130Z,51.00
2019-03-22T14:01:51.924Z,51.40
2019-03-22T14:04:21.634Z,46.90
2019-03-22T14:06:51.453Z,51.00
2019-03-22T14:09:21.164Z,51.10
2019-03-22T14:11:50.894Z,49.40
2019-03-22T14:14:20.679Z,51.70
2019-03-22T14:16:50.391Z,47.20
2019-03-22T14:19:20.150Z,48.60
2019-03-22T14:21:49.852Z,47.30
2019-03-22T14:24:19.592Z,45.90
2019-03-22T14:26:49.308Z,46.30
2019-03-22T14:29:18.980Z,46.40
2019-03-22T14:31:48.693Z,46.40
2019-03-22T14:34:18.478Z,45.20
2019-03-22T14:36:48.203Z,46.60
2019-03-22T14:39:18.015Z,48.50
2019-03-22T14:41:47.836Z,46.30
2019-03-22T14:44:25.052Z,49.70
2019-03-22T14:46:49.047Z,53.40
2019-03-22T14:49:18.721Z,52.90
2019-03-22T14:51:48.429Z,51.10
2019-03-22T14:54:18.118Z,47.30
2019-03-22T14:56:47.934Z,48.50
2019-03-22T14:59:17.668Z,47.90
2019-03-22T15:01:47.375Z,49.40
2019-03-22T15:04:17.090Z,52.40
2019-03-22T15:06:46.829Z,54.30
2019-03-22T15:09:16.515Z,55.70
2019-03-22T15:11:46.236Z,55.50
2019-03-22T15:14:44.289Z,55.80
2019-03-22T15:17:28.986Z,55.00
2019-03-22T15:20:08.918Z,56.50
2019-03-22T15:22:56.757Z,56.70
2019-03-22T15:25:44.384Z,55.00
2019-03-22T15:28:39.157Z,53.40
2019-03-22T15:31:40.222Z,52.50
2019-03-22T15:34:34.927Z,53.50
2019-03-22T15:37:22.653Z,55.00
2019-03-22T15:40:00.682Z,54.20
2019-03-22T15:42:30.822Z,55.30
2019-03-22T15:45:00.711Z,54.70
2019-03-22T15:47:30.592Z,56.40
2019-03-22T15:50:00.443Z,55.30
2019-03-22T15:52:30.227Z,54.80
2019-03-22T15:55:00.049Z,55.50
2019-03-22T15:57:29.846Z,55.40
2019-03-22T15:59:59.634Z,56.20
2019-03-22T16:02:29.337Z,55.80
2019-03-22T16:04:59.046Z,55.90
2019-03-22T16:07:28.765Z,55.50
2019-03-22T16:09:58.581Z,55.20
2019-03-22T16:12:28.418Z,55.20
2019-03-22T16:14:58.236Z,55.20
2019-03-22T16:17:28.009Z,54.80
2019-03-22T16:19:57.754Z,54.60
2019-03-22T16:22:27.436Z,55.80
2019-03-22T16:24:57.285Z,55.80
2019-03-22T16:27:27.081Z,56.10
2019-03-22T16:29:56.876Z,56.50
2019-03-22T16:32:26.564Z,56.80
2019-03-22T16:34:56.345Z,57.20
2019-03-22T16:37:26.095Z,57.40
2019-03-22T16:39:55.872Z,57.00
2019-03-22T16:42:25.683Z,57.10
2019-03-22T16:44:55.415Z,56.90
2019-03-22T16:47:25.184Z,57.40
2019-03-22T16:49:55.033Z,57.60
2019-03-22T16:52:26.217Z,57.60
2019-03-22T16:54:55.983Z,57.60
2019-03-22T16:57:25.891Z,57.90
2019-03-22T16:59:55.748Z,58.10
2019-03-22T17:02:25.494Z,58.70
2019-03-22T17:04:55.260Z,59.30
2019-03-22T17:07:25.184Z,59.20
2019-03-22T17:09:54.982Z,60.00
2019-03-22T17:12:24.715Z,60.00
2019-03-22T17:14:54.469Z,60.70
2019-03-22T17:17:24.242Z,60.70
2019-03-22T17:19:54.052Z,65.00
2019-03-22T17:22:23.865Z,66.80
2019-03-22T17:24:53.549Z,65.60
2019-03-22T17:27:23.250Z,66.70
2019-03-22T17:29:52.957Z,66.20
2019-03-22T17:32:22.788Z,65.00
2019-03-22T17:34:52.575Z,65.20
2019-03-22T17:37:22.501Z,66.00
2019-03-22T17:39:52.326Z,66.80
2019-03-22T17:42:22.137Z,66.60
2019-03-22T17:44:51.990Z,67.90
2019-03-22T17:47:21.822Z,69.30
2019-03-22T17:49:51.776Z,70.00
2019-03-22T17:52:21.483Z,69.10
2019-03-22T17:54:51.262Z,71.50
2019-03-22T17:57:20.973Z,69.50
2019-03-22T17:59:50.832Z,70.90
2019-03-22T18:02:20.752Z,73.80
2019-03-22T18:04:50.503Z,75.60
2019-03-22T18:07:20.264Z,76.00
2019-03-22T18:09:50.100Z,77.80
2019-03-22T18:12:21.624Z,77.60
2019-03-22T18:14:51.449Z,77.70
2019-03-22T18:17:21.260Z,78.20
2019-03-22T18:19:51.095Z,78.80
2019-03-22T18:22:20.928Z,79.70
2019-03-22T18:24:50.806Z,80.50
2019-03-22T18:27:20.627Z,78.90
2019-03-22T18:29:50.341Z,79.60
2019-03-22T18:32:20.120Z,81.80
2019-03-22T18:34:49.887Z,81.30
2019-03-22T18:37:19.688Z,82.70
2019-03-22T18:39:49.641Z,82.20
2019-03-22T18:42:19.413Z,82.20
2019-03-22T18:44:49.254Z,82.50
2019-03-22T18:47:18.956Z,82.50
2019-03-22T18:49:48.681Z,82.00
2019-03-22T18:52:18.542Z,81.70
2019-03-22T18:54:48.290Z,82.70
2019-03-22T18:57:17.981Z,83.50
2019-03-22T18:59:47.776Z,84.00
2019-03-22T19:02:17.627Z,85.40
2019-03-22T19:04:47.404Z,86.10
2019-03-22T19:07:17.137Z,86.00
2019-03-22T19:09:46.861Z,86.50
2019-03-22T19:12:16.803Z,87.10
2019-03-22T19:14:46.584Z,87.90
2019-03-22T19:17:16.412Z,88.50
2019-03-22T19:19:46.172Z,89.00
2019-03-22T19:22:15.965Z,89.80
2019-03-22T19:24:45.689Z,88.00
2019-03-22T19:27:15.424Z,88.10
2019-03-22T19:29:45.127Z,88.20
2019-03-22T19:32:14.965Z,88.70
2019-03-22T19:34:53.950Z,90.00
2019-03-22T19:37:16.249Z,90.00
2019-03-22T19:39:45.964Z,90.10
2019-03-22T19:42:15.845Z,90.10
2019-03-22T19:44:45.563Z,90.50
2019-03-22T19:47:15.342Z,90.50
2019-03-22T19:49:45.084Z,90.60
2019-03-22T19:52:14.855Z,90.50
2019-03-22T19:54:44.563Z,91.10
2019-03-22T19:57:14.409Z,90.30
2019-03-22T19:59:44.180Z,90.10
2019-03-22T20:02:13.953Z,90.00
2019-03-22T20:04:44.136Z,90.50
2019-03-22T20:07:13.875Z,90.60
2019-03-22T20:09:43.649Z,91.20
2019-03-22T20:12:13.459Z,90.90
2019-03-22T20:14:43.198Z,91.10
2019-03-22T20:17:12.888Z,91.30
2019-03-22T20:19:42.732Z,91.50
2019-03-22T20:22:12.539Z,91.40
2019-03-22T20:24:42.344Z,91.50
2019-03-22T20:27:12.269Z,91.60
2019-03-22T20:29:42.129Z,91.90
2019-03-22T20:32:11.920Z,92.30
2019-03-22T20:34:41.754Z,92.80
2019-03-22T20:37:11.485Z,92.80
2019-03-22T20:39:41.316Z,92.70
2019-03-22T20:42:11.087Z,92.50
2019-03-22T20:44:40.882Z,92.50
2019-03-22T20:47:10.709Z,92.80
2019-03-22T20:49:40.522Z,93.20
2019-03-22T20:52:10.365Z,93.40
2019-03-22T20:54:40.192Z,93.50
2019-03-22T20:57:09.988Z,93.70
2019-03-22T20:59:39.754Z,93.40
2019-03-22T21:02:09.691Z,93.80
2019-03-22T21:04:39.530Z,94.10
2019-03-22T21:07:09.403Z,94.30
2019-03-22T21:09:39.208Z,93.90
2019-03-22T21:12:09.048Z,94.10
2019-03-22T21:14:40.999Z,94.80
2019-03-22T21:17:10.705Z,94.60
2019-03-22T21:19:40.422Z,94.80
2019-03-22T21:22:10.281Z,95.00
2019-03-22T21:24:39.977Z,95.10
2019-03-22T21:27:15.387Z,95.40
2019-03-22T21:29:44.354Z,95.40
2019-03-22T21:32:12.928Z,95.40
2019-03-22T21:34:44.095Z,95.60
2019-03-22T21:37:14.210Z,95.50
2019-03-22T21:39:43.988Z,95.90
2019-03-22T21:42:13.859Z,96.40
2019-03-22T21:44:44.532Z,96.30
2019-03-22T21:47:14.348Z,96.30
2019-03-22T21:49:44.112Z,97.00
2019-03-22T21:52:13.901Z,97.00
2019-03-22T21:54:43.687Z,97.40
2019-03-22T21:57:13.508Z,97.60
2019-03-22T21:59:43.287Z,97.60
2019-03-22T22:02:13.114Z,97.70
2019-03-22T22:04:42.837Z,97.80
2019-03-22T22:07:12.645Z,97.60
2019-03-22T22:09:42.380Z,97.70
2019-03-22T22:12:12.088Z,98.10
2019-03-22T22:14:41.873Z,98.10
2019-03-22T22:17:11.576Z,98.30
2019-03-22T22:19:41.321Z,98.50
2019-03-22T22:22:11.099Z,98.50
2019-03-22T22:24:42.460Z,98.40
2019-03-22T22:27:14.087Z,98.40
2019-03-22T22:29:47.611Z,99.00
2019-03-22T22:32:17.389Z,99.40
2019-03-22T22:34:47.096Z,99.60
2019-03-22T22:37:16.874Z,99.70
2019-03-22T22:39:46.702Z,99.60
2019-03-22T22:42:16.450Z,99.30
2019-03-22T22:44:46.155Z,99.50
2019-03-22T22:47:15.953Z,99.50
2019-03-22T22:49:45.728Z,99.90
2019-03-22T22:52:15.420Z,99.90
2019-03-22T22:54:45.202Z,99.90
2019-03-22T22:57:15.029Z,99.90
2019-03-22T22:59:44.809Z,99.90
2019-03-22T23:02:14.663Z,99.90
2019-03-22T23:04:44.389Z,99.90
2019-03-22T23:07:14.177Z,99.90
2019-03-22T23:09:43.882Z,99.90
2019-03-22T23:12:14.906Z,99.90
2019-03-22T23:14:44.656Z,99.90
2019-03-22T23:17:14.423Z,99.90
2019-03-22T23:19:44.375Z,99.90
2019-03-22T23:22:14.166Z,99.90
2019-03-22T23:24:43.949Z,99.90
2019-03-22T23:27:13.756Z,99.90
2019-03-22T23:29:43.567Z,99.90
2019-03-22T23:32:13.385Z,99.90
2019-03-22T23:34:43.190Z,99.90
2019-03-22T23:37:12.866Z,99.90
2019-03-22T23:39:42.545Z,99.90
2019-03-22T23:42:12.317Z,99.90
2019-03-22T23:44:42.120Z,99.90
2019-03-22T23:47:11.928Z,99.90
2019-03-22T23:49:41.672Z,99.90
2019-03-22T23:52:11.450Z,99.90
2019-03-22T23:54:41.204Z,99.90
2019-03-22T23:57:10.882Z,99.90
2019-03-22T23:59:40.636Z,99.90
